Flight Track Log - Related Links

Times and Time Zones

All times are in EDT time to prevent confusion due to time zone crossing. See the GJS3618 flight status page for this flight to view local times or setup timezone preferences in your user account.


Time Position Orientation Groundspeed Altitude Reporting Facility
EDT Latitude Longitude Course Direction KTS MPH feet Rate Location/Type
Tue 10:06:59 PM 42.0167 -87.9667 270° West 168 193 2,100  Level Chicago TRACON
Tue 10:07:59 PM 42.0500 -88.0167 312° West 221 254 3,900 2,182 Climbing Chicago TRACON
Tue 10:10:06 PM 42.0981 -88.2097 289° West 286 329 8,900 2,394 Climbing Chicago Center
Tue 10:11:07 PM 42.0867 -88.3158 262° West 291 335 11,400 2,016 Climbing Chicago Center
Tue 10:12:00 PM 41.9668 -88.8371 270° West  Level FlightAware Approximate
Tue 10:12:08 PM 42.0897 -88.4292 272° West 307 353 13,000  Level Chicago Center
Tue 10:13:10 PM 42.1056 -88.5556 280° West 340 391 14,100 1,366 Climbing Chicago Center
Tue 10:14:11 PM 42.1219 -88.6911 279° West 364 419 15,800 1,475 Climbing Chicago Center
Tue 10:15:12 PM 42.1453 -88.8408 282° West 373 429 17,100 836 Climbing Chicago Center
Tue 10:16:13 PM 42.1697 -88.9811 283° West 380 437 17,500 1,180 Climbing Chicago Center
Tue 10:17:14 PM 42.1942 -89.1225 283° West 386 444 19,500 1,805 Climbing Chicago Center
Tue 10:18:16 PM 42.2189 -89.2661 283° West 391 450 21,200 1,805 Climbing Chicago Center
Tue 10:19:17 PM 42.2494 -89.4325 284° West 393 452 23,200 1,623 Climbing Chicago Center
Tue 10:20:18 PM 42.2761 -89.5792 284° West 401 461 24,500 1,279 Climbing Chicago Center
Tue 10:21:19 PM 42.3017 -89.7289 283° West 407 468 25,800 1,279 Climbing Chicago Center
Tue 10:22:20 PM 42.3356 -89.8758 287° West 410 472 27,100 1,180 Climbing Chicago Center
Tue 10:23:21 PM 42.3714 -90.0083 290° West 413 475 28,200 1,073 Climbing Chicago Center
Tue 10:24:23 PM 42.4144 -90.1558 292° West 424 488 29,300 1,171 Climbing Chicago Center
Tue 10:25:24 PM 42.4622 -90.3328 290° West 422 486 30,600 1,131 Climbing Chicago Center
Tue 10:26:25 PM 42.5036 -90.4817 291° West 427 491 31,600 934 Climbing Chicago Center
Tue 10:27:26 PM 42.5461 -90.6308 291° West 430 495 32,500 836 Climbing Chicago Center
Tue 10:28:27 PM 42.5883 -90.7842 291° West 436 502 33,300 780 Climbing Chicago Center
Tue 10:29:29 PM 42.6272 -90.9344 289° West 429 494 34,100 634 Climbing Chicago Center
Tue 10:30:30 PM 42.6686 -91.0839 291° West 428 493 34,600 639 Climbing Chicago Center
Tue 10:31:31 PM 42.7092 -91.2339 290° West 428 493 35,400 836 Climbing Chicago Center
Tue 10:32:32 PM 42.7561 -91.4142 290° West 426 490 36,300 738 Climbing Chicago Center
Tue 10:33:33 PM 42.7956 -91.5622 290° West 427 491 36,900 585 Climbing Chicago Center
Tue 10:34:35 PM 42.8339 -91.7147 289° West 426 490 37,500 390 Climbing Chicago Center
Tue 10:35:36 PM 42.8714 -91.8569 290° West 434 499 37,700 242 Climbing Chicago Center
Tue 10:36:39 PM 42.9200 -92.0433 290° West 439 505 38,000 148 Climbing Minneapolis Center
Tue 10:37:38 PM 42.9606 -92.1994 290° West 443 510 38,000  Level Chicago Center
Tue 10:38:39 PM 43.0025 -92.3611 290° West 454 522 38,000  Level Chicago Center
Tue 10:39:40 PM 43.0425 -92.5278 288° West 464 534 38,000  Level Chicago Center
Tue 10:40:42 PM 43.0844 -92.6917 289° West 462 532 38,000  Level Chicago Center
Tue 10:41:46 PM 43.1258 -92.8583 289° West 464 534 38,000  Level Minneapolis Center
Tue 10:42:47 PM 43.1742 -93.0561 289° West 461 531 38,000  Level Minneapolis Center
Tue 10:43:48 PM 43.2153 -93.2206 289° West 461 531 38,000  Level Minneapolis Center
Tue 10:44:49 PM 43.2558 -93.3847 289° West 460 529 38,000  Level Minneapolis Center
Tue 10:45:51 PM 43.2964 -93.5508 289° West 463 533 38,000  Level Minneapolis Center
Tue 10:46:52 PM 43.3369 -93.7167 289° West 464 534 38,000  Level Minneapolis Center
Tue 10:47:53 PM 43.3764 -93.8853 288° West 466 536 38,000  Level Minneapolis Center
Tue 10:48:55 PM 43.4164 -94.0528 288° West 466 536 38,000  Level Minneapolis Center
Tue 10:49:56 PM 43.4642 -94.2544 288° West 466 536 38,000  Level Minneapolis Center
Tue 10:50:57 PM 43.5056 -94.4300 288° West 465 535 38,000  Level Minneapolis Center
Tue 10:51:58 PM 43.5447 -94.6000 288° West 465 535 38,000  Level Minneapolis Center
Tue 10:52:59 PM 43.5833 -94.7675 288° West 461 531 38,000  Level Minneapolis Center
Tue 10:54:01 PM 43.6225 -94.9342 288° West 457 526 38,000  Level Minneapolis Center
Tue 10:55:02 PM 43.6597 -95.0978 288° West 449 517 38,000  Level Minneapolis Center
Tue 10:56:03 PM 43.6961 -95.2658 287° West 456 525 38,000  Level Minneapolis Center
Tue 10:57:04 PM 43.7344 -95.4328 288° West 455 524 38,000  Level Minneapolis Center
Tue 10:58:05 PM 43.7717 -95.6000 287° West 456 525 38,000  Level Minneapolis Center
Tue 10:59:07 PM 43.8089 -95.7692 287° West 458 527 38,000  Level Minneapolis Center
Tue 11:00:08 PM 43.8453 -95.9383 287° West 457 526 38,000  Level Minneapolis Center
Tue 11:01:09 PM 43.8808 -96.1075 286° West 455 524 38,000  Level Minneapolis Center
Tue 11:02:10 PM 43.9181 -96.2778 287° West 457 526 38,000  Level Minneapolis Center
Tue 11:03:11 PM 43.9533 -96.4472 286° West 453 521 38,000  Level Minneapolis Center
Tue 11:04:12 PM 43.9961 -96.6500 286° West 453 521 38,000  Level Minneapolis Center
Tue 11:05:14 PM 44.0308 -96.8172 286° West 450 518 38,000  Level Minneapolis Center
Tue 11:06:15 PM 44.0653 -96.9842 286° West 449 517 38,000  Level Minneapolis Center
Tue 11:07:16 PM 44.0994 -97.1506 286° West 448 516 38,000  Level Minneapolis Center
Tue 11:08:17 PM 44.1342 -97.3175 286° West 450 518 38,000  Level Minneapolis Center
Tue 11:09:18 PM 44.1675 -97.4825 286° West 444 511 38,000  Level Minneapolis Center
Tue 11:10:19 PM 44.2008 -97.6472 286° West 444 511 38,000  Level Minneapolis Center
Tue 11:11:21 PM 44.2339 -97.8128 286° West 444 511 38,000  Level Minneapolis Center
Tue 11:12:22 PM 44.2656 -97.9786 285° West 444 511 38,000  Level Minneapolis Center
Tue 11:13:23 PM 44.2978 -98.1431 285° West 443 510 38,000  Level Minneapolis Center
Tue 11:14:24 PM 44.3289 -98.3072 285° West 440 506 38,000  Level Minneapolis Center
Tue 11:15:25 PM 44.3622 -98.4750 286° West 439 505 38,000  Level Minneapolis Center
Tue 11:16:26 PM 44.3936 -98.6392 285° West 439 505 38,000  Level Minneapolis Center
Tue 11:17:27 PM 44.4256 -98.8031 285° West 438 504 38,000  Level Minneapolis Center
Tue 11:18:28 PM 44.4619 -99.0003 285° West 436 502 38,000  Level Minneapolis Center
Tue 11:19:29 PM 44.4931 -99.1647 285° West 437 503 38,000  Level Minneapolis Center
Tue 11:20:30 PM 44.5217 -99.3303 284° West 437 503 38,000  Level Minneapolis Center
Tue 11:21:31 PM 44.5519 -99.4944 285° West 435 501 38,000  Level Minneapolis Center
Tue 11:22:32 PM 44.5814 -99.6606 284° West 437 503 38,000  Level Minneapolis Center
Tue 11:23:33 PM 44.6111 -99.8261 284° West 436 502 38,000  Level Minneapolis Center
Tue 11:24:34 PM 44.6400 -99.9911 284° West 433 498 38,000  Level Minneapolis Center
Tue 11:25:35 PM 44.6681 -100.1578 283° West 434 499 38,000  Level Minneapolis Center
Tue 11:26:36 PM 44.6975 -100.3228 284° West 434 499 38,000  Level Minneapolis Center
Tue 11:27:37 PM 44.7256 -100.4872 284° West 431 496 38,000  Level Minneapolis Center
Tue 11:28:38 PM 44.7542 -100.6522 284° West 432 497 38,000  Level Minneapolis Center
Tue 11:29:38 PM 44.7764 -100.7850 283° West 433 498 38,000  Level Minneapolis Center
Tue 11:30:39 PM 44.8100 -100.9828 284° West 433 498 38,000  Level Minneapolis Center
Tue 11:31:40 PM 44.8364 -101.1475 283° West 432 497 38,000  Level Minneapolis Center
Tue 11:32:41 PM 44.8625 -101.3103 283° West 430 495 38,000  Level Minneapolis Center
Tue 11:33:42 PM 44.8883 -101.4736 283° West 428 493 38,000  Level Minneapolis Center
Tue 11:34:43 PM 44.9139 -101.6367 283° West 427 491 38,000  Level Minneapolis Center
Tue 11:35:44 PM 44.9408 -101.7983 283° West 426 490 38,000  Level Minneapolis Center
Tue 11:36:45 PM 44.9683 -101.9589 284° West 423 487 38,000  Level Minneapolis Center
Tue 11:37:46 PM 44.9917 -102.1183 282° West 420 483 38,000  Level Minneapolis Center
Tue 11:38:46 PM 45.0192 -102.3111 281° West 418 481 38,000  Level Minneapolis Center
Tue 11:39:47 PM 45.0431 -102.4739 282° West 420 483 38,000  Level Minneapolis Center
Tue 11:40:48 PM 45.0681 -102.6364 282° West 422 486 38,000  Level Minneapolis Center
Tue 11:41:49 PM 45.0939 -102.7983 283° West 422 486 38,000  Level Minneapolis Center
Tue 11:42:50 PM 45.1175 -102.9625 282° West 424 488 38,000  Level Minneapolis Center
Tue 11:43:51 PM 45.1400 -103.1272 281° West 425 489 38,000  Level Minneapolis Center
Tue 11:44:52 PM 45.1647 -103.2919 282° West 427 491 38,000  Level Minneapolis Center
Tue 11:46:04 PM 45.1964 -103.4553 285° West 429 494 38,000  Level Minneapolis Center
Tue 11:47:05 PM 45.2244 -103.6489 282° West 425 489 38,000  Level Minneapolis Center
Tue 11:48:06 PM 45.2467 -103.8142 281° West 423 487 38,000  Level Minneapolis Center
Tue 11:49:07 PM 45.2700 -103.9783 281° West 424 488 38,000  Level Minneapolis Center
Tue 11:50:08 PM 45.2925 -104.1447 281° West 425 489 38,000  Level Minneapolis Center
Tue 11:51:09 PM 45.3144 -104.3144 280° West 429 494 38,000  Level Minneapolis Center
Tue 11:52:09 PM 45.3372 -104.4833 281° West 432 497 38,000  Level Minneapolis Center
Tue 11:53:29 PM 45.3675 -104.7108 281° West 437 503 38,000  Level Salt Lake Center
Tue 11:54:30 PM 45.3889 -104.8789 280° West 435 501 38,000  Level Salt Lake Center
Tue 11:55:31 PM 45.4139 -105.0797 280° West 432 497 38,000  Level Salt Lake Center
Tue 11:56:32 PM 45.4361 -105.2478 281° West 434 499 38,000  Level Salt Lake Center
Tue 11:57:33 PM 45.4575 -105.4164 280° West 434 499 38,000  Level Salt Lake Center
Tue 11:58:34 PM 45.4769 -105.5844 279° West 433 498 38,000  Level Salt Lake Center
Tue 11:59:35 PM 45.4975 -105.7503 280° West 429 494 38,000  Level Salt Lake Center
Wed 12:00:36 AM 45.5189 -105.9192 280° West 432 497 38,000  Level Salt Lake Center
Wed 12:01:37 AM 45.5392 -106.0844 280° West 428 493 38,000  Level Salt Lake Center
Wed 12:02:38 AM 45.5581 -106.2522 279° West 430 495 38,000  Level Salt Lake Center
Wed 12:03:39 AM 45.5778 -106.4203 280° West 430 495 38,000  Level Salt Lake Center
Wed 12:04:40 AM 45.5967 -106.5867 279° West 429 494 38,000  Level Salt Lake Center
Wed 12:05:41 AM 45.6131 -106.7506 278° West 422 486 38,000  Level Salt Lake Center
Wed 12:06:42 AM 45.6367 -106.9528 280° West 428 493 38,000  Level Salt Lake Center
Wed 12:07:42 AM 45.6572 -107.1219 280° West 433 498 38,000  Level Salt Lake Center
Wed 12:08:43 AM 45.6742 -107.2911 278° West 433 498 38,000  Level Salt Lake Center
Wed 12:09:44 AM 45.6919 -107.4606 279° West 434 499 38,000  Level Salt Lake Center
Wed 12:10:45 AM 45.7100 -107.6292 279° West 432 497 38,000  Level Salt Lake Center
Wed 12:11:46 AM 45.7272 -107.7964 278° West 428 493 38,000  Level Salt Lake Center
Wed 12:12:47 AM 45.7436 -107.9611 278° West 422 486 38,000 -443 Level Salt Lake Center
Wed 12:13:48 AM 45.7600 -108.1256 278° West 421 484 37,100 -1,180 Descending Salt Lake Center
Wed 12:14:49 AM 45.7764 -108.2931 278° West 427 491 35,600 -1,033 Descending Salt Lake Center
Wed 12:15:50 AM 45.7925 -108.4600 278° West 427 491 35,000 -1,140 Descending Salt Lake Center
Wed 12:16:50 AM 45.8086 -108.6356 278° West 443 510 33,300 -2,331 Descending Salt Lake Center
Wed 12:17:51 AM 45.8083 -108.8392 270° West 424 488 30,300 -2,705 Descending Salt Lake Center
Wed 12:18:52 AM 45.8081 -108.9981 270° West 404 465 27,800 -2,459 Descending Salt Lake Center
Wed 12:19:53 AM 45.8075 -109.1544 270° West 395 455 25,300 -2,459 Descending Salt Lake Center
Wed 12:20:54 AM 45.8061 -109.3061 269° West 384 442 22,800 -2,459 Descending Salt Lake Center
Wed 12:21:55 AM 45.8056 -109.4536 270° West 375 432 20,300 -2,529 Descending Salt Lake Center
Wed 12:22:55 AM 45.8042 -109.6019 269° West 361 415 17,700 -1,636 Descending Salt Lake Center
Wed 12:23:56 AM 45.8025 -109.7422 269° West 355 409 17,000 -344 Descending Salt Lake Center
Wed 12:24:57 AM 45.8008 -109.8819 269° West 363 418 17,000  Level Salt Lake Center
Wed 12:25:58 AM 45.7983 -110.0278 269° West 367 422 17,000 -934 Level Salt Lake Center
Wed 12:26:59 AM 45.7964 -110.1769 269° West 373 429 15,100 -2,164 Descending Salt Lake Center
Wed 12:28:00 AM 45.7950 -110.3189 269° West 364 419 12,600 -1,525 Descending Salt Lake Center
Wed 12:29:01 AM 45.7917 -110.4564 268° West 352 405 12,000 -295 Descending Salt Lake Center
Wed 12:30:02 AM 45.7900 -110.5958 269° West 350 403 12,000  Level Salt Lake Center
Wed 12:31:02 AM 45.7867 -110.7419 268° West 331 381 12,000 -50 Level Salt Lake Center
Wed 12:32:03 AM 45.7844 -110.8575 268° West 294 338 11,900 -492 Descending Salt Lake Center
Wed 12:33:04 AM 45.7956 -110.9561 279° West 260 299 11,000 -1,033 Descending Salt Lake Center
Wed 12:34:05 AM 45.8242 -111.0306 299° West 231 266 9,800 -1,339 Descending Salt Lake Center
Wed 12:35:05 AM 45.8569 -111.0986 305° West 217 250 8,300 -1,488 Descending Salt Lake Center
Wed 12:36:06 AM 45.8783 -111.1778 291° West 217 250 6,800 -984 Descending Salt Lake Center
Wed 12:37:07 AM 45.8728 -111.2378 262° West 194 223 6,300 -541 Descending Salt Lake Center
Wed 12:38:08 AM 45.8347 -111.2314 173° South 170 196 5,700 -694 Descending Salt Lake Center
Wed 12:39:08 AM 45.8058 -111.1919 136° Southeast 153 176 4,900 -800 Descending Salt Lake Center

Login

Don't have an account? Register now (free) for customized features, flight alerts, and more!